Time;durP1;ratioP1;P1;durP2;ratioP2;P2;SDS_P1;SDS_P2;PMS_P1;PMS_P2;Temp;Humidity;BMP_temperature;BMP_pressure;BME280_temperature;BME280_humidity;BME280_pressure;Samples;Min_cycle;Max_cycle;Signal;HPM_P1;HPM_P2
2022/09/03 00:00:48;;;;;;;0.10;0.10;;;;;;;6.95;73.68;100192.25;6213941;22;20386;-69
2022/09/03 00:03:19;;;;;;;0.10;0.10;;;;;;;6.91;73.80;100191.06;6272178;22;20020;-69
2022/09/03 00:05:50;;;;;;;0.00;0.00;;;;;;;6.92;74.15;100200.88;6247837;22;20016;-69
2022/09/03 00:08:22;;;;;;;0.10;0.10;;;;;;;6.96;74.33;100201.22;6267448;22;20069;-69
2022/09/03 00:10:53;;;;;;;0.10;0.10;;;;;;;6.79;74.38;100187.56;6273225;22;20078;-69
2022/09/03 00:13:26;;;;;;;0.10;0.10;;;;;;;6.88;74.85;100204.31;6238222;22;20042;-69
2022/09/03 00:15:56;;;;;;;0.10;0.10;;;;;;;6.81;75.30;100204.44;6235455;22;20498;-69
2022/09/03 00:18:27;;;;;;;0.10;0.10;;;;;;;6.82;75.39;100219.69;6246484;22;20020;-70
2022/09/03 00:20:58;;;;;;;0.10;0.10;;;;;;;6.80;75.44;100228.09;6236505;22;20048;-70
2022/09/03 00:23:27;;;;;;;0.03;0.03;;;;;;;6.80;75.39;100225.38;6246972;22;20019;-69
2022/09/03 00:25:59;;;;;;;0.10;0.10;;;;;;;6.78;75.82;100226.69;6274179;22;20020;-69
2022/09/03 00:28:29;;;;;;;0.00;0.00;;;;;;;6.75;75.77;100229.88;6236027;22;20114;-69
2022/09/03 00:31:06;;;;;;;0.10;0.10;;;;;;;6.70;76.23;100232.47;6247824;22;20023;-69
2022/09/03 00:33:33;;;;;;;0.00;0.00;;;;;;;6.71;76.77;100231.41;6275744;22;20024;-70
2022/09/03 00:36:09;;;;;;;0.03;0.03;;;;;;;6.67;76.66;100237.31;6237104;22;20019;-70
2022/09/03 00:38:36;;;;;;;0.20;0.10;;;;;;;6.67;76.69;100250.91;6274000;22;20540;-69
2022/09/03 00:41:09;;;;;;;0.10;0.10;;;;;;;6.66;76.84;100254.69;6263782;22;20057;-69
2022/09/03 00:44:02;;;;;;;0.10;0.10;;;;;;;6.63;76.76;100254.31;6246543;22;20043;-69
2022/09/03 00:46:41;;;;;;;0.10;0.10;;;;;;;6.60;76.65;100258.38;6248677;22;20019;-69
2022/09/03 00:49:23;;;;;;;0.10;0.10;;;;;;;6.57;76.51;100249.84;6264951;22;20118;-70
2022/09/03 00:51:56;;;;;;;0.10;0.10;;;;;;;6.58;76.36;100259.66;6274592;22;20058;-69
2022/09/03 00:54:34;;;;;;;0.10;0.10;;;;;;;6.52;76.69;100254.13;6238119;22;20065;-69
2022/09/03 00:57:30;;;;;;;0.10;0.10;;;;;;;6.47;77.23;100259.41;6238638;22;20113;-70
2022/09/03 01:00:04;;;;;;;0.43;0.10;;;;;;;6.49;77.59;100264.63;6245934;22;20020;-70
2022/09/03 01:02:45;;;;;;;0.10;0.10;;;;;;;6.51;77.62;100257.91;6238983;22;20547;-70
2022/09/03 01:05:26;;;;;;;0.10;0.10;;;;;;;6.49;77.50;100268.19;6250349;22;20027;-70
2022/09/03 01:08:07;;;;;;;0.10;0.10;;;;;;;6.49;77.92;100275.50;6211498;22;20069;-70
2022/09/03 01:10:43;;;;;;;0.00;0.00;;;;;;;6.46;77.66;100263.19;6273428;22;20023;-70
2022/09/03 01:13:16;;;;;;;0.10;0.10;;;;;;;6.49;78.16;100257.31;6237969;22;20126;-70
2022/09/03 01:15:50;;;;;;;0.10;0.10;;;;;;;6.54;77.78;100267.44;6243220;22;20464;-70
2022/09/03 01:18:27;;;;;;;0.10;0.10;;;;;;;6.49;77.90;100268.19;6269161;22;20027;-70
2022/09/03 01:21:12;;;;;;;0.10;0.10;;;;;;;6.51;78.15;100268.75;6239566;22;20083;-70
2022/09/03 01:24:17;;;;;;;0.10;0.10;;;;;;;6.49;77.79;100275.50;6238789;22;20019;-69
2022/09/03 01:27:03;;;;;;;0.00;0.00;;;;;;;6.47;77.79;100272.19;6247431;22;20390;-69
2022/09/03 01:29:37;;;;;;;0.10;0.10;;;;;;;6.44;77.93;100281.63;6267747;22;20023;-69
2022/09/03 01:32:08;;;;;;;0.10;0.10;;;;;;;6.41;78.02;100278.56;6273513;22;20029;-69
2022/09/03 01:34:48;;;;;;;0.10;0.10;;;;;;;6.41;78.23;100275.84;6236126;22;20024;-68
2022/09/03 01:37:22;;;;;;;0.10;0.10;;;;;;;6.42;78.20;100288.38;6212751;22;20015;-70
2022/09/03 01:40:00;;;;;;;0.10;0.10;;;;;;;6.42;78.35;100282.94;6247769;22;20023;-69
2022/09/03 01:42:35;;;;;;;0.10;0.10;;;;;;;6.37;78.54;100283.63;6264821;22;20019;-69
2022/09/03 01:45:18;;;;;;;0.10;0.10;;;;;;;6.24;78.63;100273.81;6265336;22;20019;-69
2022/09/03 01:47:56;;;;;;;0.10;0.10;;;;;;;6.37;78.41;100283.63;6267526;22;20481;-69
2022/09/03 01:50:35;;;;;;;0.10;0.10;;;;;;;6.31;78.55;100290.00;6262079;22;20027;-69
2022/09/03 01:53:07;;;;;;;0.10;0.10;;;;;;;6.31;78.67;100292.72;6236851;22;20016;-69
2022/09/03 01:55:49;;;;;;;0.00;0.00;;;;;;;6.32;78.82;100297.06;6265005;22;20024;-69
2022/09/03 01:58:20;;;;;;;0.10;0.10;;;;;;;6.33;79.13;100305.00;6240473;22;20019;-70
2022/09/03 02:00:55;;;;;;;0.10;0.10;;;;;;;6.33;79.25;100299.56;6265870;22;20020;-69
2022/09/03 02:03:23;;;;;;;0.50;0.20;;;;;;;6.34;78.82;100305.84;6248249;22;20020;-69
2022/09/03 02:05:51;;;;;;;0.10;0.10;;;;;;;6.32;78.82;100313.38;6265769;22;20027;-69
2022/09/03 02:08:18;;;;;;;0.08;0.08;;;;;;;6.27;79.11;100310.53;6260365;22;20422;-71
2022/09/03 02:10:48;;;;;;;0.10;0.10;;;;;;;6.27;79.49;100311.38;6236509;22;20524;-71
2022/09/03 02:13:17;;;;;;;0.00;0.00;;;;;;;6.28;79.36;100315.75;6275126;22;20023;-71
2022/09/03 02:15:46;;;;;;;0.10;0.10;;;;;;;6.26;79.70;100309.72;6264329;22;20035;-69
2022/09/03 02:18:17;;;;;;;0.10;0.10;;;;;;;6.25;79.91;100329.81;6274393;22;20023;-69
2022/09/03 02:20:46;;;;;;;0.10;0.10;;;;;;;6.24;80.10;100325.41;6275317;22;20019;-71
2022/09/03 02:23:13;;;;;;;0.10;0.10;;;;;;;6.25;80.18;100321.66;6272644;22;20026;-71
2022/09/03 02:25:43;;;;;;;0.10;0.10;;;;;;;6.30;80.37;100329.06;6262016;22;20103;-70
2022/09/03 02:28:10;;;;;;;0.43;0.10;;;;;;;6.28;80.11;100320.34;6236065;22;20024;-71
2022/09/03 02:30:36;;;;;;;0.08;0.08;;;;;;;6.25;79.87;100332.50;6275338;22;20027;-71
2022/09/03 02:33:02;;;;;;;0.10;0.10;;;;;;;6.22;79.80;100327.53;6262950;22;20504;-70
2022/09/03 02:35:30;;;;;;;0.00;0.00;;;;;;;6.20;79.96;100335.09;6235445;22;20023;-71
2022/09/03 02:37:56;;;;;;;;;;;;;;;6.20;80.05;100330.50;6264540;22;20081;-71
2022/09/03 02:40:22;;;;;;;0.10;0.10;;;;;;;6.19;79.91;100334.28;6239259;22;20359;-71
2022/09/03 02:42:49;;;;;;;0.10;0.10;;;;;;;6.20;79.76;100343.22;6275348;22;20019;-72
2022/09/03 02:45:23;;;;;;;0.10;0.10;;;;;;;6.17;79.96;100338.28;6279471;22;20024;-71
2022/09/03 02:47:53;;;;;;;0.05;0.05;;;;;;;6.16;80.22;100336.63;6279341;22;20098;-70
2022/09/03 02:50:19;;;;;;;0.10;0.10;;;;;;;6.17;80.14;100343.69;6237628;22;20024;-71
2022/09/03 02:52:47;;;;;;;0.05;0.05;;;;;;;6.16;80.32;100350.19;6264589;22;20031;-70
2022/09/03 02:55:14;;;;;;;0.20;0.20;;;;;;;6.21;79.79;100344.88;6274736;22;20047;-70
2022/09/03 02:57:40;;;;;;;0.03;0.03;;;;;;;6.23;79.67;100348.19;6263288;22;20406;-70
2022/09/03 03:00:08;;;;;;;0.45;0.10;;;;;;;6.22;79.66;100341.94;6274222;22;20344;-70
2022/09/03 03:02:34;;;;;;;0.00;0.00;;;;;;;6.26;79.59;100347.75;6264509;22;20023;-70
2022/09/03 03:05:00;;;;;;;0.10;0.10;;;;;;;6.22;79.51;100350.09;6275878;22;20030;-70
2022/09/03 03:07:27;;;;;;;0.10;0.10;;;;;;;6.26;79.62;100352.34;6238843;22;20034;-70
2022/09/03 03:09:54;;;;;;;0.10;0.10;;;;;;;6.27;79.61;100356.72;6265613;22;20180;-71
2022/09/03 03:12:20;;;;;;;0.10;0.10;;;;;;;6.28;79.51;100356.50;6246834;22;20027;-71
2022/09/03 03:14:47;;;;;;;0.10;0.10;;;;;;;6.32;79.33;100363.09;6240536;22;20019;-71
2022/09/03 03:17:12;;;;;;;0.15;0.10;;;;;;;6.34;79.27;100363.69;6276141;22;20459;-72
2022/09/03 03:19:39;;;;;;;0.10;0.10;;;;;;;6.38;79.01;100369.50;6239886;22;20069;-70
2022/09/03 03:22:05;;;;;;;0.28;0.10;;;;;;;6.43;78.74;100363.38;6263679;22;20023;-70
2022/09/03 03:24:31;;;;;;;0.10;0.10;;;;;;;6.48;78.75;100372.47;6237680;22;20496;-71
2022/09/03 03:26:58;;;;;;;0.10;0.10;;;;;;;6.49;78.71;100368.69;6276521;22;20090;-71
2022/09/03 03:29:24;;;;;;;0.10;0.10;;;;;;;6.48;78.56;100369.75;6212157;22;20546;-71
2022/09/03 03:31:51;;;;;;;0.10;0.10;;;;;;;6.47;78.51;100373.50;6249809;22;20020;-70
2022/09/03 03:34:17;;;;;;;0.10;0.10;;;;;;;6.50;78.58;100372.22;6266322;22;20039;-71
2022/09/03 03:36:43;;;;;;;0.10;0.10;;;;;;;6.57;78.50;100381.13;6245072;22;20023;-71
2022/09/03 03:39:09;;;;;;;0.10;0.10;;;;;;;6.61;78.29;100381.44;6239766;22;20016;-71
2022/09/03 03:41:36;;;;;;;0.10;0.10;;;;;;;6.61;77.87;100379.56;6248771;22;20031;-71
2022/09/03 03:44:05;;;;;;;0.10;0.10;;;;;;;6.64;77.81;100381.00;6274024;22;20019;-71
2022/09/03 03:46:34;;;;;;;0.20;0.20;;;;;;;6.66;77.35;100385.13;6236692;22;20341;-71
2022/09/03 03:49:00;;;;;;;0.10;0.10;;;;;;;6.71;77.28;100383.59;6224895;22;20463;-71
2022/09/03 03:51:26;;;;;;;0.38;0.10;;;;;;;6.74;77.13;100380.44;6278660;22;20030;-71
2022/09/03 03:53:54;;;;;;;0.10;0.10;;;;;;;6.79;77.06;100377.81;6265215;22;20434;-70
2022/09/03 03:56:21;;;;;;;0.10;0.10;;;;;;;6.86;77.00;100383.97;6278182;22;20718;-70
2022/09/03 03:58:47;;;;;;;0.10;0.10;;;;;;;6.90;76.71;100384.31;6276270;22;20023;-70
2022/09/03 04:01:17;;;;;;;0.10;0.10;;;;;;;6.99;76.49;100388.34;6214562;22;20023;-71
2022/09/03 04:03:43;;;;;;;0.10;0.10;;;;;;;7.04;76.14;100388.47;6275194;22;20023;-70
2022/09/03 04:06:12;;;;;;;0.10;0.10;;;;;;;7.08;75.42;100391.53;6264746;22;20047;-70
2022/09/03 04:08:39;;;;;;;0.10;0.10;;;;;;;7.08;74.79;100395.06;6242468;22;20035;-69
2022/09/03 04:11:08;;;;;;;0.10;0.10;;;;;;;7.09;75.05;100393.19;6266416;22;20066;-69
2022/09/03 04:13:38;;;;;;;0.20;0.20;;;;;;;7.12;74.87;100386.47;6238251;22;20031;-69
2022/09/03 04:16:06;;;;;;;0.30;0.10;;;;;;;7.11;74.69;100385.63;6265195;22;20023;-69
2022/09/03 04:18:34;;;;;;;0.10;0.10;;;;;;;7.18;74.42;100401.81;6275593;22;20034;-69
2022/09/03 04:21:03;;;;;;;0.10;0.10;;;;;;;7.21;74.01;100404.91;6240602;22;20110;-70
2022/09/03 04:23:30;;;;;;;0.10;0.10;;;;;;;7.27;73.81;100397.69;6266078;22;20027;-69
2022/09/03 04:25:58;;;;;;;0.35;0.10;;;;;;;7.31;73.70;100395.28;6211682;22;20024;-69
2022/09/03 04:28:24;;;;;;;0.10;0.10;;;;;;;7.38;73.51;100399.53;6248729;22;20020;-69
2022/09/03 04:30:50;;;;;;;0.10;0.10;;;;;;;7.46;73.29;100402.97;6233971;22;20023;-70
2022/09/03 04:33:16;;;;;;;0.15;0.15;;;;;;;7.52;73.35;100399.28;6274600;22;20072;-69
2022/09/03 04:35:44;;;;;;;0.10;0.10;;;;;;;7.57;72.87;100396.69;6275164;22;20019;-71
2022/09/03 04:38:10;;;;;;;;;;;;;;;7.64;72.75;100402.81;6265323;22;20078;-70
2022/09/03 04:40:36;;;;;;;0.30;0.10;;;;;;;7.72;72.39;100403.50;6251182;22;19930;-70
2022/09/03 04:43:03;;;;;;;0.10;0.10;;;;;;;7.80;72.15;100409.41;6241529;22;20019;-69
2022/09/03 04:45:29;;;;;;;0.10;0.10;;;;;;;7.90;72.00;100402.50;6267107;22;20464;-69
2022/09/03 04:47:57;;;;;;;0.10;0.10;;;;;;;8.01;71.32;100419.84;6273918;22;20107;-69
2022/09/03 04:50:23;;;;;;;0.10;0.10;;;;;;;8.03;71.17;100407.66;6235161;22;20463;-69
2022/09/03 04:53:03;;;;;;;0.10;0.10;;;;;;;8.08;71.22;100405.03;6249183;22;20219;-69
2022/09/03 04:55:32;;;;;;;0.10;0.10;;;;;;;8.12;71.02;100402.66;6266386;22;20114;-69
2022/09/03 04:57:58;;;;;;;0.10;0.10;;;;;;;8.12;70.67;100399.94;6274680;22;20393;-69
2022/09/03 05:00:24;;;;;;;0.10;0.10;;;;;;;8.21;70.54;100403.09;6273251;22;20023;-69
2022/09/03 05:02:51;;;;;;;0.10;0.10;;;;;;;8.33;70.31;100412.03;6248037;22;20027;-69
2022/09/03 05:05:17;;;;;;;0.10;0.10;;;;;;;8.42;70.17;100412.47;6272303;22;20020;-69
2022/09/03 05:07:43;;;;;;;0.10;0.10;;;;;;;8.51;69.92;100411.03;6275642;22;20022;-69
2022/09/03 05:10:19;;;;;;;0.20;0.20;;;;;;;8.57;69.18;100416.56;6276789;22;20311;-69
2022/09/03 05:12:46;;;;;;;0.10;0.10;;;;;;;8.62;68.76;100416.63;6224771;22;20077;-69
2022/09/03 05:15:12;;;;;;;;;;;;;;;8.63;68.91;100416.41;6275338;22;20023;-69
2022/09/03 05:17:38;;;;;;;0.10;0.10;;;;;;;8.71;68.56;100419.78;6268124;22;19919;-69
2022/09/03 05:20:08;;;;;;;0.10;0.10;;;;;;;8.74;68.29;100420.13;6233778;22;20020;-69
2022/09/03 05:22:35;;;;;;;0.10;0.10;;;;;;;8.80;68.29;100423.75;6274005;22;20034;-69
2022/09/03 05:25:01;;;;;;;0.47;0.20;;;;;;;8.87;68.15;100413.50;6246335;22;20023;-70
2022/09/03 05:27:29;;;;;;;0.73;0.22;;;;;;;8.92;68.07;100421.78;6275401;22;20023;-71
2022/09/03 05:29:55;;;;;;;0.13;0.13;;;;;;;8.99;67.67;100423.50;6263627;22;20407;-70
2022/09/03 05:32:21;;;;;;;0.10;0.10;;;;;;;9.05;67.23;100419.75;6260531;22;20050;-70
2022/09/03 05:34:47;;;;;;;0.10;0.10;;;;;;;8.99;67.15;100428.97;6246542;22;20459;-70
2022/09/03 05:37:13;;;;;;;0.10;0.10;;;;;;;9.00;67.45;100436.91;6238744;22;20088;-70
2022/09/03 05:39:39;;;;;;;0.10;0.10;;;;;;;8.98;67.22;100430.88;6263772;22;20024;-70
2022/09/03 05:42:05;;;;;;;0.43;0.20;;;;;;;8.98;67.16;100432.75;6272992;22;20383;-70
2022/09/03 05:44:33;;;;;;;0.35;0.20;;;;;;;9.09;67.17;100440.03;6272967;22;20263;-70
2022/09/03 05:46:59;;;;;;;;;;;;;;;9.31;66.65;100441.97;6246476;22;20106;-69
2022/09/03 05:49:25;;;;;;;0.35;0.20;;;;;;;9.52;65.80;100443.09;6238502;22;19963;-70
2022/09/03 05:51:51;;;;;;;0.30;0.30;;;;;;;9.67;64.95;100447.94;6264122;22;20024;-70
2022/09/03 05:54:17;;;;;;;0.20;0.20;;;;;;;9.82;64.82;100452.78;6235455;22;20022;-70
2022/09/03 05:56:43;;;;;;;0.20;0.20;;;;;;;9.99;64.22;100447.25;6272463;22;20024;-70
2022/09/03 05:59:09;;;;;;;0.17;0.17;;;;;;;10.07;63.44;100460.47;6273795;22;20023;-70
2022/09/03 06:01:39;;;;;;;0.20;0.20;;;;;;;9.97;63.32;100438.47;6272026;22;20471;-70
2022/09/03 06:04:07;;;;;;;0.20;0.20;;;;;;;10.25;62.82;100446.72;6265237;22;20019;-70
2022/09/03 06:06:35;;;;;;;0.17;0.17;;;;;;;10.25;62.42;100455.72;6211856;22;20020;-70
2022/09/03 06:09:03;;;;;;;0.10;0.10;;;;;;;10.28;62.15;100462.59;6263924;22;20028;-70
2022/09/03 06:11:31;;;;;;;0.50;0.20;;;;;;;10.30;61.85;100463.16;6264899;22;20412;-70
2022/09/03 06:14:00;;;;;;;0.10;0.10;;;;;;;10.38;61.29;100470.94;6238277;22;20110;-71
2022/09/03 06:16:26;;;;;;;0.20;0.20;;;;;;;10.36;61.51;100460.22;6210480;22;20027;-71
2022/09/03 06:18:55;;;;;;;0.20;0.20;;;;;;;10.46;61.65;100461.47;6273242;22;20027;-70
2022/09/03 06:21:22;;;;;;;0.52;0.20;;;;;;;10.62;60.70;100471.47;6235929;22;20272;-69
2022/09/03 06:23:50;;;;;;;0.20;0.20;;;;;;;10.78;60.47;100474.34;6270665;22;20050;-69
2022/09/03 06:26:18;;;;;;;0.20;0.20;;;;;;;10.78;60.03;100469.69;6270918;22;20096;-69
2022/09/03 06:28:45;;;;;;;0.13;0.13;;;;;;;10.86;59.90;100464.84;6262039;22;20022;-69
2022/09/03 06:31:13;;;;;;;0.22;0.22;;;;;;;11.02;59.85;100468.50;6261760;22;20107;-69
2022/09/03 06:33:41;;;;;;;0.28;0.20;;;;;;;11.10;59.72;100475.41;6268140;22;20479;-69
2022/09/03 06:36:11;;;;;;;0.20;0.20;;;;;;;11.32;58.48;100476.16;6188938;22;20024;-70
2022/09/03 06:38:38;;;;;;;0.30;0.30;;;;;;;11.35;57.81;100464.66;6274616;22;20098;-70
2022/09/03 06:41:06;;;;;;;0.20;0.20;;;;;;;11.34;57.46;100465.75;6277445;22;20020;-70
2022/09/03 06:43:35;;;;;;;0.30;0.30;;;;;;;11.48;57.16;100471.56;6263800;22;20409;-70
2022/09/03 06:46:04;;;;;;;0.38;0.30;;;;;;;11.62;56.08;100474.66;6266062;22;20045;-70
2022/09/03 06:48:32;;;;;;;0.20;0.20;;;;;;;11.82;54.74;100473.13;6248180;22;20062;-70
2022/09/03 06:51:00;;;;;;;0.30;0.30;;;;;;;11.74;54.41;100470.88;6274521;22;20019;-70
2022/09/03 06:53:29;;;;;;;;;;;;;;;11.85;53.97;100480.81;6274651;22;20019;-70
2022/09/03 06:55:56;;;;;;;0.20;0.20;;;;;;;11.81;53.97;100465.16;6268714;22;19965;-71
2022/09/03 06:58:23;;;;;;;0.10;0.10;;;;;;;11.53;55.00;100469.94;6240205;22;20022;-70
2022/09/03 07:00:51;;;;;;;0.68;0.30;;;;;;;11.43;55.45;100474.28;6268256;22;20019;-71
2022/09/03 07:03:18;;;;;;;0.20;0.20;;;;;;;11.52;55.18;100458.19;6238353;22;20422;-70
2022/09/03 07:05:44;;;;;;;0.52;0.20;;;;;;;11.74;54.52;100473.63;6265574;22;20064;-71
2022/09/03 07:08:11;;;;;;;0.20;0.20;;;;;;;12.14;53.48;100468.63;6262693;22;20019;-71
2022/09/03 07:10:38;;;;;;;0.20;0.20;;;;;;;12.45;52.85;100466.81;6279098;22;20220;-71
2022/09/03 07:13:07;;;;;;;;;;;;;;;12.66;52.36;100472.31;6242558;22;20016;-71
2022/09/03 07:15:33;;;;;;;0.70;0.30;;;;;;;12.79;51.42;100475.63;6266436;22;19942;-70
2022/09/03 07:17:59;;;;;;;0.20;0.20;;;;;;;12.51;50.88;100466.81;6241270;22;20023;-70
2022/09/03 07:20:25;;;;;;;0.27;0.27;;;;;;;12.42;51.52;100466.50;6267251;22;20410;-70
2022/09/03 07:22:55;;;;;;;0.47;0.30;;;;;;;12.73;50.65;100472.03;6267309;22;20348;-71
2022/09/03 07:25:21;;;;;;;0.25;0.25;;;;;;;13.11;49.53;100478.09;6239848;22;20024;-69
2022/09/03 07:27:50;;;;;;;0.20;0.20;;;;;;;12.93;48.86;100462.16;6262640;22;20351;-69
2022/09/03 07:30:16;;;;;;;0.30;0.30;;;;;;;12.73;49.55;100478.38;6235587;22;20030;-69
2022/09/03 07:32:42;;;;;;;0.22;0.22;;;;;;;12.51;49.68;100472.28;6224779;22;20406;-69
2022/09/03 07:35:08;;;;;;;0.10;0.10;;;;;;;12.08;50.84;100476.00;6251274;22;20572;-69
2022/09/03 07:37:34;;;;;;;0.30;0.30;;;;;;;12.23;51.01;100477.16;6236048;22;20070;-70
2022/09/03 07:40:00;;;;;;;0.30;0.30;;;;;;;12.81;50.09;100473.44;6210300;22;20019;-70
2022/09/03 07:42:29;;;;;;;0.30;0.30;;;;;;;13.39;48.70;100464.88;6265061;22;20058;-70
2022/09/03 07:44:57;;;;;;;0.40;0.40;;;;;;;13.65;47.77;100464.00;6239135;22;20023;-69
2022/09/03 07:47:25;;;;;;;0.30;0.30;;;;;;;14.07;47.20;100473.75;6277487;22;20427;-69
2022/09/03 07:49:51;;;;;;;0.30;0.30;;;;;;;14.35;45.34;100478.84;6270622;22;20050;-69
2022/09/03 07:52:17;;;;;;;0.30;0.30;;;;;;;14.38;45.48;100467.31;6279623;22;20290;-70
2022/09/03 07:54:43;;;;;;;0.30;0.30;;;;;;;14.91;44.22;100485.97;6268662;22;20066;-71
2022/09/03 07:57:10;;;;;;;0.98;0.38;;;;;;;15.37;42.66;100473.69;6279411;22;20049;-70
2022/09/03 07:59:36;;;;;;;0.30;0.30;;;;;;;15.18;42.34;100473.59;6240367;22;20494;-71
2022/09/03 08:02:04;;;;;;;0.30;0.30;;;;;;;15.42;42.35;100462.63;6270488;22;20050;-70
2022/09/03 08:04:32;;;;;;;0.40;0.40;;;;;;;15.53;41.88;100479.06;6279294;22;20042;-69
2022/09/03 08:06:58;;;;;;;0.35;0.35;;;;;;;15.43;41.02;100455.19;6268793;22;20043;-71
2022/09/03 08:09:25;;;;;;;0.40;0.40;;;;;;;15.61;41.17;100464.66;6281635;22;20093;-69
2022/09/03 08:11:51;;;;;;;0.40;0.40;;;;;;;16.22;40.58;100464.22;6224987;22;20027;-71
2022/09/03 08:14:17;;;;;;;0.40;0.40;;;;;;;15.87;40.37;100459.66;6280318;22;20020;-71
2022/09/03 08:16:46;;;;;;;0.40;0.40;;;;;;;16.35;39.92;100470.91;6277645;22;20473;-71
2022/09/03 08:19:14;;;;;;;0.40;0.40;;;;;;;16.66;39.33;100448.38;6239345;22;20020;-71
2022/09/03 08:21:41;;;;;;;0.40;0.40;;;;;;;16.67;39.21;100461.91;6276843;22;20514;-71
2022/09/03 08:24:07;;;;;;;1.20;0.65;;;;;;;16.97;38.96;100465.28;6275177;22;20442;-71
2022/09/03 08:26:36;;;;;;;0.60;0.60;;;;;;;17.20;37.85;100459.13;6213380;22;20051;-71
2022/09/03 08:29:03;;;;;;;0.45;0.45;;;;;;;17.53;37.13;100457.13;6242360;22;20043;-70
2022/09/03 08:31:31;;;;;;;0.55;0.50;;;;;;;17.66;36.54;100449.16;6279139;22;20080;-70
2022/09/03 08:33:57;;;;;;;;;;;;;;;17.20;36.92;100461.91;6279174;22;20474;-71
2022/09/03 08:36:26;;;;;;;0.30;0.30;;;;;;;16.17;39.38;100456.81;6241917;22;19942;-70
2022/09/03 08:38:54;;;;;;;0.68;0.50;;;;;;;15.98;40.17;100463.13;6280453;22;20031;-71
2022/09/03 08:41:22;;;;;;;;;;;;;;;16.60;38.98;100464.19;6271849;22;20298;-70
2022/09/03 08:44:04;;;;;;;0.50;0.50;;;;;;;17.42;37.96;100462.03;6277327;22;19994;-71
2022/09/03 08:46:39;;;;;;;0.85;0.60;;;;;;;17.78;37.30;100462.47;6276785;22;20024;-71
2022/09/03 08:49:10;;;;;;;0.57;0.57;;;;;;;17.36;36.96;100471.56;6215160;22;20026;-71
2022/09/03 08:51:40;;;;;;;0.55;0.55;;;;;;;17.02;37.99;100469.94;6252052;22;20023;-71
2022/09/03 08:54:08;;;;;;;0.22;0.22;;;;;;;17.29;37.52;100468.34;6240823;22;20386;-71
2022/09/03 08:56:39;;;;;;;0.55;0.55;;;;;;;16.47;38.94;100475.97;6278206;22;20371;-71
2022/09/03 08:59:06;;;;;;;0.60;0.60;;;;;;;17.15;37.88;100471.09;6240422;22;20099;-70
2022/09/03 09:01:42;;;;;;;0.52;0.52;;;;;;;17.53;36.09;100462.66;6250482;22;20035;-71
2022/09/03 09:04:18;;;;;;;0.60;0.60;;;;;;;17.63;36.26;100461.63;6277513;22;20087;-71
2022/09/03 09:06:53;;;;;;;0.60;0.60;;;;;;;18.36;34.91;100451.88;6240045;22;20034;-71
2022/09/03 09:09:29;;;;;;;0.60;0.60;;;;;;;19.25;33.79;100459.72;6213891;22;20070;-71
2022/09/03 09:12:03;;;;;;;0.30;0.30;;;;;;;19.48;33.03;100460.47;6268102;22;20124;-71
2022/09/03 09:14:37;;;;;;;0.30;0.30;;;;;;;19.70;32.45;100447.66;6268094;22;20494;-72
2022/09/03 09:17:23;;;;;;;0.30;0.30;;;;;;;19.26;32.94;100453.03;6268698;22;20047;-72
2022/09/03 09:19:59;;;;;;;0.70;0.70;;;;;;;18.52;34.16;100450.38;6234955;23;20052;-71
2022/09/03 09:22:32;;;;;;;0.80;0.80;;;;;;;18.92;33.11;100458.00;6237571;22;20094;-71
2022/09/03 09:25:04;;;;;;;0.80;0.80;;;;;;;19.32;31.53;100451.75;6206739;23;20066;-71
2022/09/03 09:27:32;;;;;;;0.80;0.80;;;;;;;19.52;30.96;100444.03;6245191;22;20471;-71
2022/09/03 09:30:03;;;;;;;1.00;0.90;;;;;;;19.19;31.11;100445.16;6238204;23;20023;-72
2022/09/03 09:32:30;;;;;;;0.90;0.90;;;;;;;19.67;31.11;100440.00;6237408;22;20020;-72
2022/09/03 09:34:57;;;;;;;2.50;1.05;;;;;;;20.16;30.49;100442.78;6245250;23;20508;-72
2022/09/03 09:37:23;;;;;;;1.50;0.90;;;;;;;20.65;29.47;100448.16;6217436;23;20478;-72
2022/09/03 09:39:56;;;;;;;1.33;1.00;;;;;;;20.65;29.42;100450.13;6249517;22;20468;-72
2022/09/03 09:42:23;;;;;;;1.00;1.00;;;;;;;21.28;28.55;100430.25;6236420;22;20020;-72
2022/09/03 09:44:49;;;;;;;0.90;0.90;;;;;;;21.62;27.79;100445.19;6246512;23;20522;-72
2022/09/03 09:47:22;;;;;;;1.00;1.00;;;;;;;21.49;27.95;100447.03;6205568;23;20086;-72
2022/09/03 09:49:52;;;;;;;0.95;0.95;;;;;;;21.59;28.00;100445.84;6238689;22;20082;-72
2022/09/03 09:52:20;;;;;;;1.00;1.00;;;;;;;22.37;27.29;100440.16;6240355;22;20093;-71
2022/09/03 09:54:46;;;;;;;0.35;0.35;;;;;;;23.06;25.87;100425.97;6233226;23;20070;-72
2022/09/03 09:57:17;;;;;;;1.25;1.10;;;;;;;22.77;25.85;100442.47;6245852;22;20024;-72
2022/09/03 09:59:45;;;;;;;0.90;0.90;;;;;;;23.40;24.60;100429.53;6233573;23;20030;-72
2022/09/03 10:02:13;;;;;;;0.40;0.40;;;;;;;22.52;24.93;100434.00;6246188;22;20050;-70
2022/09/03 10:04:42;;;;;;;0.30;0.30;;;;;;;21.43;26.62;100437.22;6244771;22;20027;-70
2022/09/03 10:07:23;;;;;;;0.63;0.63;;;;;;;20.50;27.67;100435.59;6218387;23;20024;-71
2022/09/03 10:10:01;;;;;;;0.98;0.98;;;;;;;21.06;27.09;100451.56;6247374;22;20024;-72
2022/09/03 10:12:40;;;;;;;0.70;0.70;;;;;;;22.00;25.92;100426.81;6235091;23;20055;-70
2022/09/03 10:15:23;;;;;;;1.05;1.05;;;;;;;23.20;24.23;100422.84;6242259;22;20463;-71
2022/09/03 10:17:56;;;;;;;1.00;1.00;;;;;;;24.15;23.24;100426.72;6246509;22;20026;-71
2022/09/03 10:20:30;;;;;;;1.30;1.15;;;;;;;24.20;22.58;100418.09;6264002;22;20467;-72
2022/09/03 10:23:01;;;;;;;0.40;0.40;;;;;;;22.62;24.55;100431.94;6265628;22;20030;-71
2022/09/03 10:25:40;;;;;;;0.30;0.30;;;;;;;21.03;26.09;100427.22;6239234;22;20471;-71
2022/09/03 10:28:09;;;;;;;0.40;0.40;;;;;;;19.60;27.92;100432.13;6218298;22;20122;-71
2022/09/03 10:30:54;;;;;;;0.30;0.30;;;;;;;18.68;29.49;100433.41;6280496;22;20015;-71
2022/09/03 10:33:25;;;;;;;0.32;0.32;;;;;;;17.97;30.06;100427.22;6278266;22;20051;-71
2022/09/03 10:36:01;;;;;;;0.30;0.30;;;;;;;17.64;31.03;100440.34;6277889;22;20077;-71
2022/09/03 10:38:31;;;;;;;0.55;0.40;;;;;;;17.43;31.31;100435.22;6277144;22;20110;-71
2022/09/03 10:41:12;;;;;;;0.30;0.30;;;;;;;17.13;31.82;100434.66;6239282;22;20035;-71
2022/09/03 10:44:05;;;;;;;0.40;0.40;;;;;;;17.02;31.94;100431.28;6241816;22;20028;-71
2022/09/03 10:46:45;;;;;;;0.40;0.40;;;;;;;17.11;32.23;100432.19;6241797;22;20070;-71
2022/09/03 10:49:23;;;;;;;0.32;0.32;;;;;;;17.11;32.98;100429.44;6278064;22;20107;-71
2022/09/03 10:52:01;;;;;;;0.40;0.40;;;;;;;17.14;33.06;100430.78;6247817;22;20047;-71
2022/09/03 10:54:43;;;;;;;0.50;0.50;;;;;;;17.29;32.81;100441.56;6267253;22;20106;-71
2022/09/03 10:57:22;;;;;;;0.40;0.40;;;;;;;17.08;33.40;100446.63;6265346;22;20035;-71
2022/09/03 11:00:08;;;;;;;0.70;0.70;;;;;;;17.20;33.24;100434.28;6237184;22;20023;-71
2022/09/03 11:03:09;;;;;;;0.50;0.50;;;;;;;18.20;31.66;100457.75;6240795;22;20054;-71
2022/09/03 11:05:41;;;;;;;0.60;0.60;;;;;;;19.31;29.80;100439.03;6262301;22;20055;-71
2022/09/03 11:08:15;;;;;;;0.40;0.40;;;;;;;18.48;30.67;100443.00;6279696;22;20023;-71
2022/09/03 11:10:48;;;;;;;0.40;0.40;;;;;;;17.36;32.95;100454.13;6240185;22;20027;-71
2022/09/03 11:13:20;;;;;;;0.43;0.40;;;;;;;16.28;35.40;100451.97;6277489;22;20020;-78
2022/09/03 11:15:52;;;;;;;0.30;0.30;;;;;;;15.71;37.41;100447.16;6191114;22;20024;-79
2022/09/03 11:18:25;;;;;;;0.77;0.50;;;;;;;15.62;38.55;100452.50;6280353;22;20451;-78
2022/09/03 11:20:56;;;;;;;0.50;0.50;;;;;;;15.72;38.08;100449.63;6280912;22;20026;-71
2022/09/03 11:23:26;;;;;;;0.80;0.70;;;;;;;16.16;37.20;100439.47;6263957;22;20019;-71
2022/09/03 11:25:55;;;;;;;0.70;0.70;;;;;;;17.28;35.26;100430.78;6265093;22;20102;-71
2022/09/03 11:28:33;;;;;;;1.50;1.40;;;;;;;17.63;33.08;100436.75;6269190;22;20569;-71
2022/09/03 11:31:16;;;;;;;1.40;1.30;;;;;;;19.05;30.51;100431.41;6250853;22;20459;-79
2022/09/03 11:33:50;;;;;;;1.55;1.40;;;;;;;20.60;28.82;100422.50;6253626;22;20019;-78
2022/09/03 11:36:27;;;;;;;1.30;1.20;;;;;;;22.15;26.42;100419.84;6281047;22;20023;-79
2022/09/03 11:38:54;;;;;;;2.80;1.50;;;;;;;23.38;25.59;100415.13;6279096;22;20455;-79
2022/09/03 11:41:25;;;;;;;1.40;1.30;;;;;;;24.49;23.23;100408.56;6252006;22;20027;-79
2022/09/03 11:43:53;;;;;;;0.73;0.50;;;;;;;23.51;23.78;100413.97;6278841;22;20408;-79
2022/09/03 11:46:28;;;;;;;;;;;;;;;21.37;26.28;100411.56;6250881;22;20027;-79